sensor_id;sensor_type;location;lat;lon;timestamp;temperature;humidity
46336;DHT22;31365;48.858;8.530;2024-03-08T00:01:02;2.40;99.90
46336;DHT22;31365;48.858;8.530;2024-03-08T00:03:32;2.40;99.90
46336;DHT22;31365;48.858;8.530;2024-03-08T00:06:02;2.50;99.90
46336;DHT22;31365;48.858;8.530;2024-03-08T00:08:31;2.60;99.90
46336;DHT22;31365;48.858;8.530;2024-03-08T00:11:00;2.70;99.90
46336;DHT22;31365;48.858;8.530;2024-03-08T00:13:28;2.80;99.90
46336;DHT22;31365;48.858;8.530;2024-03-08T00:15:57;2.80;99.90
46336;DHT22;31365;48.858;8.530;2024-03-08T00:18:26;2.80;99.90
46336;DHT22;31365;48.858;8.530;2024-03-08T00:20:56;2.80;99.90
46336;DHT22;31365;48.858;8.530;2024-03-08T00:23:25;2.80;99.90
46336;DHT22;31365;48.858;8.530;2024-03-08T00:25:55;2.90;99.90
46336;DHT22;31365;48.858;8.530;2024-03-08T00:28:23;2.90;99.90
46336;DHT22;31365;48.858;8.530;2024-03-08T00:30:55;2.90;99.90
46336;DHT22;31365;48.858;8.530;2024-03-08T00:33:25;2.90;99.90
46336;DHT22;31365;48.858;8.530;2024-03-08T00:35:54;3.00;99.90
46336;DHT22;31365;48.858;8.530;2024-03-08T00:38:22;3.00;99.90
46336;DHT22;31365;48.858;8.530;2024-03-08T00:40:52;3.10;99.90
46336;DHT22;31365;48.858;8.530;2024-03-08T00:43:20;3.20;99.90
46336;DHT22;31365;48.858;8.530;2024-03-08T00:45:50;3.20;99.90
46336;DHT22;31365;48.858;8.530;2024-03-08T00:48:19;3.10;99.90
46336;DHT22;31365;48.858;8.530;2024-03-08T00:50:47;3.10;99.90
46336;DHT22;31365;48.858;8.530;2024-03-08T00:53:16;3.10;99.90
46336;DHT22;31365;48.858;8.530;2024-03-08T00:55:45;3.20;99.90
46336;DHT22;31365;48.858;8.530;2024-03-08T00:58:15;3.20;99.90
46336;DHT22;31365;48.858;8.530;2024-03-08T01:00:44;3.20;99.90
46336;DHT22;31365;48.858;8.530;2024-03-08T01:03:13;3.20;99.90
46336;DHT22;31365;48.858;8.530;2024-03-08T01:05:41;3.10;99.90
46336;DHT22;31365;48.858;8.530;2024-03-08T01:08:10;3.20;99.90
46336;DHT22;31365;48.858;8.530;2024-03-08T01:10:38;3.20;99.90
46336;DHT22;31365;48.858;8.530;2024-03-08T01:13:07;3.20;99.90
46336;DHT22;31365;48.858;8.530;2024-03-08T01:15:38;3.20;99.90
46336;DHT22;31365;48.858;8.530;2024-03-08T01:18:08;3.20;99.90
46336;DHT22;31365;48.858;8.530;2024-03-08T01:20:37;3.20;99.90
46336;DHT22;31365;48.858;8.530;2024-03-08T01:23:08;3.20;99.90
46336;DHT22;31365;48.858;8.530;2024-03-08T01:25:36;3.20;99.90
46336;DHT22;31365;48.858;8.530;2024-03-08T01:28:07;3.20;99.90
46336;DHT22;31365;48.858;8.530;2024-03-08T01:30:37;3.20;99.90
46336;DHT22;31365;48.858;8.530;2024-03-08T01:33:06;3.20;99.90
46336;DHT22;31365;48.858;8.530;2024-03-08T01:35:35;3.20;99.90
46336;DHT22;31365;48.858;8.530;2024-03-08T01:38:05;3.10;99.90
46336;DHT22;31365;48.858;8.530;2024-03-08T01:40:33;3.10;99.90
46336;DHT22;31365;48.858;8.530;2024-03-08T01:43:19;3.10;99.90
46336;DHT22;31365;48.858;8.530;2024-03-08T01:45:50;3.10;99.90
46336;DHT22;31365;48.858;8.530;2024-03-08T01:48:20;3.00;99.90
46336;DHT22;31365;48.858;8.530;2024-03-08T01:50:52;3.00;99.90
46336;DHT22;31365;48.858;8.530;2024-03-08T01:53:22;3.00;99.90
46336;DHT22;31365;48.858;8.530;2024-03-08T01:55:56;3.00;99.90
46336;DHT22;31365;48.858;8.530;2024-03-08T01:58:27;2.90;99.90
46336;DHT22;31365;48.858;8.530;2024-03-08T02:00:59;2.90;99.90
46336;DHT22;31365;48.858;8.530;2024-03-08T02:03:31;2.90;99.90
46336;DHT22;31365;48.858;8.530;2024-03-08T02:06:01;2.90;99.90
46336;DHT22;31365;48.858;8.530;2024-03-08T02:08:29;2.90;99.90
46336;DHT22;31365;48.858;8.530;2024-03-08T02:10:58;2.90;99.90
46336;DHT22;31365;48.858;8.530;2024-03-08T02:13:29;2.80;99.90
46336;DHT22;31365;48.858;8.530;2024-03-08T02:16:00;2.80;99.90
46336;DHT22;31365;48.858;8.530;2024-03-08T02:18:29;2.80;99.90
46336;DHT22;31365;48.858;8.530;2024-03-08T02:21:04;2.80;99.90
46336;DHT22;31365;48.858;8.530;2024-03-08T02:23:36;2.80;99.90
46336;DHT22;31365;48.858;8.530;2024-03-08T02:26:06;2.80;99.90
46336;DHT22;31365;48.858;8.530;2024-03-08T02:28:35;2.80;99.90
46336;DHT22;31365;48.858;8.530;2024-03-08T02:31:04;2.80;99.90
46336;DHT22;31365;48.858;8.530;2024-03-08T02:33:35;2.70;99.90
46336;DHT22;31365;48.858;8.530;2024-03-08T02:36:06;2.70;99.90
46336;DHT22;31365;48.858;8.530;2024-03-08T02:38:35;2.70;99.90
46336;DHT22;31365;48.858;8.530;2024-03-08T02:41:04;2.70;99.90
46336;DHT22;31365;48.858;8.530;2024-03-08T02:43:32;2.70;99.90
46336;DHT22;31365;48.858;8.530;2024-03-08T02:46:01;2.70;99.90
46336;DHT22;31365;48.858;8.530;2024-03-08T02:48:29;2.70;99.90
46336;DHT22;31365;48.858;8.530;2024-03-08T02:50:58;2.70;99.90
46336;DHT22;31365;48.858;8.530;2024-03-08T02:53:30;2.60;99.90
46336;DHT22;31365;48.858;8.530;2024-03-08T02:55:58;2.60;99.90
46336;DHT22;31365;48.858;8.530;2024-03-08T02:58:26;2.60;99.90
46336;DHT22;31365;48.858;8.530;2024-03-08T03:00:55;2.60;99.90
46336;DHT22;31365;48.858;8.530;2024-03-08T03:03:24;2.50;99.90
46336;DHT22;31365;48.858;8.530;2024-03-08T03:05:53;2.50;99.90
46336;DHT22;31365;48.858;8.530;2024-03-08T03:08:23;2.50;99.90
46336;DHT22;31365;48.858;8.530;2024-03-08T03:10:53;2.40;99.90
46336;DHT22;31365;48.858;8.530;2024-03-08T03:13:23;2.40;99.90
46336;DHT22;31365;48.858;8.530;2024-03-08T03:15:52;2.40;99.90
46336;DHT22;31365;48.858;8.530;2024-03-08T03:18:22;2.40;99.90
46336;DHT22;31365;48.858;8.530;2024-03-08T03:20:51;2.40;99.90
46336;DHT22;31365;48.858;8.530;2024-03-08T03:23:20;2.30;99.90
46336;DHT22;31365;48.858;8.530;2024-03-08T03:25:50;2.30;99.90
46336;DHT22;31365;48.858;8.530;2024-03-08T03:28:20;2.30;99.90
46336;DHT22;31365;48.858;8.530;2024-03-08T03:30:51;2.30;99.90
46336;DHT22;31365;48.858;8.530;2024-03-08T03:33:20;2.30;99.90
46336;DHT22;31365;48.858;8.530;2024-03-08T03:35:51;2.30;99.90
46336;DHT22;31365;48.858;8.530;2024-03-08T03:38:20;2.30;99.90
46336;DHT22;31365;48.858;8.530;2024-03-08T03:40:51;2.30;99.90
46336;DHT22;31365;48.858;8.530;2024-03-08T03:43:24;2.20;99.90
46336;DHT22;31365;48.858;8.530;2024-03-08T03:45:53;2.30;99.90
46336;DHT22;31365;48.858;8.530;2024-03-08T03:48:22;2.20;99.90
46336;DHT22;31365;48.858;8.530;2024-03-08T03:50:51;2.20;99.90
46336;DHT22;31365;48.858;8.530;2024-03-08T03:53:19;2.20;99.90
46336;DHT22;31365;48.858;8.530;2024-03-08T03:55:48;2.20;99.90
46336;DHT22;31365;48.858;8.530;2024-03-08T03:58:17;2.20;99.90
46336;DHT22;31365;48.858;8.530;2024-03-08T04:00:51;2.20;99.90
46336;DHT22;31365;48.858;8.530;2024-03-08T04:03:20;2.20;99.90
46336;DHT22;31365;48.858;8.530;2024-03-08T04:05:48;2.20;99.90
46336;DHT22;31365;48.858;8.530;2024-03-08T04:08:18;2.20;99.90
46336;DHT22;31365;48.858;8.530;2024-03-08T04:10:47;2.20;99.90
46336;DHT22;31365;48.858;8.530;2024-03-08T04:13:15;2.20;99.90
46336;DHT22;31365;48.858;8.530;2024-03-08T04:15:44;2.20;99.90
46336;DHT22;31365;48.858;8.530;2024-03-08T04:18:17;2.20;99.90
46336;DHT22;31365;48.858;8.530;2024-03-08T04:20:47;2.20;99.90
46336;DHT22;31365;48.858;8.530;2024-03-08T04:23:15;2.20;99.90
46336;DHT22;31365;48.858;8.530;2024-03-08T04:25:45;2.20;99.90
46336;DHT22;31365;48.858;8.530;2024-03-08T04:28:13;2.20;99.90
46336;DHT22;31365;48.858;8.530;2024-03-08T04:30:42;2.10;99.90
46336;DHT22;31365;48.858;8.530;2024-03-08T04:33:10;2.20;99.90
46336;DHT22;31365;48.858;8.530;2024-03-08T04:35:40;2.20;99.90
46336;DHT22;31365;48.858;8.530;2024-03-08T04:38:09;2.10;99.90
46336;DHT22;31365;48.858;8.530;2024-03-08T04:40:37;2.10;99.90
46336;DHT22;31365;48.858;8.530;2024-03-08T04:43:06;2.10;99.90
46336;DHT22;31365;48.858;8.530;2024-03-08T04:45:35;2.10;99.90
46336;DHT22;31365;48.858;8.530;2024-03-08T04:48:04;2.10;99.90
46336;DHT22;31365;48.858;8.530;2024-03-08T04:50:35;2.10;99.90
46336;DHT22;31365;48.858;8.530;2024-03-08T04:53:06;2.00;99.90
46336;DHT22;31365;48.858;8.530;2024-03-08T04:55:36;2.00;99.90
46336;DHT22;31365;48.858;8.530;2024-03-08T04:58:04;2.00;99.90
46336;DHT22;31365;48.858;8.530;2024-03-08T05:00:34;2.00;99.90
46336;DHT22;31365;48.858;8.530;2024-03-08T05:03:03;2.00;99.90
46336;DHT22;31365;48.858;8.530;2024-03-08T05:05:32;2.00;99.90
46336;DHT22;31365;48.858;8.530;2024-03-08T05:08:00;2.00;99.90
46336;DHT22;31365;48.858;8.530;2024-03-08T05:10:31;2.00;99.90
46336;DHT22;31365;48.858;8.530;2024-03-08T05:12:59;1.90;99.90
46336;DHT22;31365;48.858;8.530;2024-03-08T05:15:28;1.90;99.90
46336;DHT22;31365;48.858;8.530;2024-03-08T05:17:56;1.90;99.90
46336;DHT22;31365;48.858;8.530;2024-03-08T05:20:25;1.90;99.90
46336;DHT22;31365;48.858;8.530;2024-03-08T05:22:53;1.90;99.90
46336;DHT22;31365;48.858;8.530;2024-03-08T05:25:22;1.90;99.90
46336;DHT22;31365;48.858;8.530;2024-03-08T05:27:54;1.90;99.90
46336;DHT22;31365;48.858;8.530;2024-03-08T05:30:22;1.90;99.90
46336;DHT22;31365;48.858;8.530;2024-03-08T05:32:50;1.90;99.90
46336;DHT22;31365;48.858;8.530;2024-03-08T05:35:19;1.90;99.90
46336;DHT22;31365;48.858;8.530;2024-03-08T05:37:49;1.90;99.90
46336;DHT22;31365;48.858;8.530;2024-03-08T05:40:19;2.00;99.90
46336;DHT22;31365;48.858;8.530;2024-03-08T05:42:49;2.00;99.90
46336;DHT22;31365;48.858;8.530;2024-03-08T05:45:19;2.00;99.90
46336;DHT22;31365;48.858;8.530;2024-03-08T05:47:48;1.90;99.90
46336;DHT22;31365;48.858;8.530;2024-03-08T05:50:19;1.90;99.90
46336;DHT22;31365;48.858;8.530;2024-03-08T05:52:48;1.90;99.90
46336;DHT22;31365;48.858;8.530;2024-03-08T05:55:17;1.90;99.90
46336;DHT22;31365;48.858;8.530;2024-03-08T05:57:46;1.90;99.90
46336;DHT22;31365;48.858;8.530;2024-03-08T06:00:15;1.90;99.90
46336;DHT22;31365;48.858;8.530;2024-03-08T06:02:47;1.90;99.90
46336;DHT22;31365;48.858;8.530;2024-03-08T06:05:15;1.90;99.90
46336;DHT22;31365;48.858;8.530;2024-03-08T06:07:44;1.90;99.90
46336;DHT22;31365;48.858;8.530;2024-03-08T06:10:13;1.90;99.90
46336;DHT22;31365;48.858;8.530;2024-03-08T06:12:41;1.90;99.90
46336;DHT22;31365;48.858;8.530;2024-03-08T06:15:11;1.90;99.90
46336;DHT22;31365;48.858;8.530;2024-03-08T06:17:42;2.00;99.90
46336;DHT22;31365;48.858;8.530;2024-03-08T06:20:13;2.00;99.90
46336;DHT22;31365;48.858;8.530;2024-03-08T06:22:42;2.00;99.90
46336;DHT22;31365;48.858;8.530;2024-03-08T06:25:12;2.00;99.90
46336;DHT22;31365;48.858;8.530;2024-03-08T06:27:41;2.10;99.90
46336;DHT22;31365;48.858;8.530;2024-03-08T06:30:11;2.10;99.90
46336;DHT22;31365;48.858;8.530;2024-03-08T06:32:39;2.10;99.90
46336;DHT22;31365;48.858;8.530;2024-03-08T06:35:10;2.20;99.90
46336;DHT22;31365;48.858;8.530;2024-03-08T06:37:41;2.20;99.90
46336;DHT22;31365;48.858;8.530;2024-03-08T06:40:11;2.20;99.90
46336;DHT22;31365;48.858;8.530;2024-03-08T06:42:42;2.30;99.90
46336;DHT22;31365;48.858;8.530;2024-03-08T06:45:10;2.30;99.90
46336;DHT22;31365;48.858;8.530;2024-03-08T06:47:40;2.40;99.90
46336;DHT22;31365;48.858;8.530;2024-03-08T06:50:10;2.40;99.90
46336;DHT22;31365;48.858;8.530;2024-03-08T06:52:41;2.50;99.90
46336;DHT22;31365;48.858;8.530;2024-03-08T06:55:11;2.60;99.90
46336;DHT22;31365;48.858;8.530;2024-03-08T06:57:43;2.70;99.90
46336;DHT22;31365;48.858;8.530;2024-03-08T07:00:12;2.70;99.90
46336;DHT22;31365;48.858;8.530;2024-03-08T07:02:46;2.80;99.90
46336;DHT22;31365;48.858;8.530;2024-03-08T07:05:16;2.90;99.90
46336;DHT22;31365;48.858;8.530;2024-03-08T07:07:47;3.00;99.90
46336;DHT22;31365;48.858;8.530;2024-03-08T07:10:16;3.10;99.90
46336;DHT22;31365;48.858;8.530;2024-03-08T07:12:48;3.20;99.90
46336;DHT22;31365;48.858;8.530;2024-03-08T07:15:16;3.30;99.90
46336;DHT22;31365;48.858;8.530;2024-03-08T07:17:48;3.30;99.90
46336;DHT22;31365;48.858;8.530;2024-03-08T07:20:20;3.30;99.90
46336;DHT22;31365;48.858;8.530;2024-03-08T07:22:51;3.30;99.90
46336;DHT22;31365;48.858;8.530;2024-03-08T07:25:21;3.30;99.90
46336;DHT22;31365;48.858;8.530;2024-03-08T07:27:51;3.30;99.90
46336;DHT22;31365;48.858;8.530;2024-03-08T07:30:22;3.30;99.90
46336;DHT22;31365;48.858;8.530;2024-03-08T07:33:17;3.40;99.90
46336;DHT22;31365;48.858;8.530;2024-03-08T07:35:47;3.40;99.90
46336;DHT22;31365;48.858;8.530;2024-03-08T07:38:19;3.40;99.90
46336;DHT22;31365;48.858;8.530;2024-03-08T07:40:51;3.40;99.90
46336;DHT22;31365;48.858;8.530;2024-03-08T07:43:19;3.50;99.90
46336;DHT22;31365;48.858;8.530;2024-03-08T07:45:49;3.50;99.90
46336;DHT22;31365;48.858;8.530;2024-03-08T07:48:20;3.60;99.90
46336;DHT22;31365;48.858;8.530;2024-03-08T07:50:49;3.60;99.90
46336;DHT22;31365;48.858;8.530;2024-03-08T07:53:19;3.70;99.90
46336;DHT22;31365;48.858;8.530;2024-03-08T07:55:48;3.80;99.90
46336;DHT22;31365;48.858;8.530;2024-03-08T07:58:18;3.90;99.90
46336;DHT22;31365;48.858;8.530;2024-03-08T08:00:48;3.90;99.90
46336;DHT22;31365;48.858;8.530;2024-03-08T08:03:16;4.00;99.90
46336;DHT22;31365;48.858;8.530;2024-03-08T08:05:48;4.10;99.90
46336;DHT22;31365;48.858;8.530;2024-03-08T08:08:18;4.20;99.90
46336;DHT22;31365;48.858;8.530;2024-03-08T08:10:47;4.20;99.90
46336;DHT22;31365;48.858;8.530;2024-03-08T08:13:16;4.20;99.90
46336;DHT22;31365;48.858;8.530;2024-03-08T08:15:46;4.20;99.90
46336;DHT22;31365;48.858;8.530;2024-03-08T08:18:14;4.20;99.90
46336;DHT22;31365;48.858;8.530;2024-03-08T08:20:44;4.20;99.90
46336;DHT22;31365;48.858;8.530;2024-03-08T08:23:13;4.20;99.90
46336;DHT22;31365;48.858;8.530;2024-03-08T08:25:44;4.20;99.90
46336;DHT22;31365;48.858;8.530;2024-03-08T08:28:12;4.30;99.90
46336;DHT22;31365;48.858;8.530;2024-03-08T08:30:41;4.20;99.90
46336;DHT22;31365;48.858;8.530;2024-03-08T08:33:10;4.30;99.90
46336;DHT22;31365;48.858;8.530;2024-03-08T08:35:39;4.40;99.90
46336;DHT22;31365;48.858;8.530;2024-03-08T08:38:10;4.50;99.90
46336;DHT22;31365;48.858;8.530;2024-03-08T08:40:39;4.60;99.90
46336;DHT22;31365;48.858;8.530;2024-03-08T08:43:10;4.70;99.90
46336;DHT22;31365;48.858;8.530;2024-03-08T08:45:39;4.80;99.90
46336;DHT22;31365;48.858;8.530;2024-03-08T08:48:07;4.90;99.90
46336;DHT22;31365;48.858;8.530;2024-03-08T08:50:38;5.00;99.90
46336;DHT22;31365;48.858;8.530;2024-03-08T08:53:06;5.00;99.90
46336;DHT22;31365;48.858;8.530;2024-03-08T08:55:39;5.10;99.90
46336;DHT22;31365;48.858;8.530;2024-03-08T08:58:11;5.10;99.90
46336;DHT22;31365;48.858;8.530;2024-03-08T09:00:40;5.20;99.90
46336;DHT22;31365;48.858;8.530;2024-03-08T09:03:11;5.20;99.90
46336;DHT22;31365;48.858;8.530;2024-03-08T09:05:40;5.20;99.90
46336;DHT22;31365;48.858;8.530;2024-03-08T09:08:12;5.30;99.90
46336;DHT22;31365;48.858;8.530;2024-03-08T09:10:41;5.40;99.90
46336;DHT22;31365;48.858;8.530;2024-03-08T09:13:12;5.60;99.90
46336;DHT22;31365;48.858;8.530;2024-03-08T09:15:55;5.60;99.90
46336;DHT22;31365;48.858;8.530;2024-03-08T09:18:23;5.80;99.90
46336;DHT22;31365;48.858;8.530;2024-03-08T09:20:52;5.70;99.90
46336;DHT22;31365;48.858;8.530;2024-03-08T09:23:21;5.70;99.90
46336;DHT22;31365;48.858;8.530;2024-03-08T09:25:51;5.60;99.90
46336;DHT22;31365;48.858;8.530;2024-03-08T09:28:20;5.60;99.90
46336;DHT22;31365;48.858;8.530;2024-03-08T09:30:49;5.60;99.90
46336;DHT22;31365;48.858;8.530;2024-03-08T09:33:26;5.70;99.90
46336;DHT22;31365;48.858;8.530;2024-03-08T09:35:56;5.70;99.90
46336;DHT22;31365;48.858;8.530;2024-03-08T09:38:29;5.60;99.90
46336;DHT22;31365;48.858;8.530;2024-03-08T09:40:58;5.50;99.90
46336;DHT22;31365;48.858;8.530;2024-03-08T09:43:32;5.50;99.90
46336;DHT22;31365;48.858;8.530;2024-03-08T09:46:01;5.60;99.90
46336;DHT22;31365;48.858;8.530;2024-03-08T09:48:32;5.70;99.90
46336;DHT22;31365;48.858;8.530;2024-03-08T09:51:03;5.80;99.90
46336;DHT22;31365;48.858;8.530;2024-03-08T09:53:33;5.80;99.90
46336;DHT22;31365;48.858;8.530;2024-03-08T09:56:05;5.90;99.90
46336;DHT22;31365;48.858;8.530;2024-03-08T09:58:36;6.00;99.90
46336;DHT22;31365;48.858;8.530;2024-03-08T10:01:19;5.90;99.90
46336;DHT22;31365;48.858;8.530;2024-03-08T10:03:48;6.00;99.90
46336;DHT22;31365;48.858;8.530;2024-03-08T10:06:22;6.20;99.90
46336;DHT22;31365;48.858;8.530;2024-03-08T10:08:52;6.40;99.90
46336;DHT22;31365;48.858;8.530;2024-03-08T10:11:20;6.40;99.90
46336;DHT22;31365;48.858;8.530;2024-03-08T10:13:52;6.60;99.90
46336;DHT22;31365;48.858;8.530;2024-03-08T10:16:20;6.70;99.90
46336;DHT22;31365;48.858;8.530;2024-03-08T10:18:51;6.80;99.90
46336;DHT22;31365;48.858;8.530;2024-03-08T10:21:20;6.90;99.90
46336;DHT22;31365;48.858;8.530;2024-03-08T10:23:50;7.00;99.90
46336;DHT22;31365;48.858;8.530;2024-03-08T10:26:19;7.10;99.90
46336;DHT22;31365;48.858;8.530;2024-03-08T10:28:52;7.20;99.90
46336;DHT22;31365;48.858;8.530;2024-03-08T10:31:21;7.40;99.90
46336;DHT22;31365;48.858;8.530;2024-03-08T10:33:50;7.50;99.90
46336;DHT22;31365;48.858;8.530;2024-03-08T10:36:19;7.70;99.90
46336;DHT22;31365;48.858;8.530;2024-03-08T10:38:51;7.60;99.90
46336;DHT22;31365;48.858;8.530;2024-03-08T10:41:24;7.60;99.90
46336;DHT22;31365;48.858;8.530;2024-03-08T10:44:09;7.70;99.90
46336;DHT22;31365;48.858;8.530;2024-03-08T10:47:00;7.80;99.90
46336;DHT22;31365;48.858;8.530;2024-03-08T10:49:38;7.90;99.90
46336;DHT22;31365;48.858;8.530;2024-03-08T10:52:09;7.70;99.90
46336;DHT22;31365;48.858;8.530;2024-03-08T10:54:42;7.80;99.90
46336;DHT22;31365;48.858;8.530;2024-03-08T10:57:13;7.90;99.90
46336;DHT22;31365;48.858;8.530;2024-03-08T10:59:47;8.10;99.90
46336;DHT22;31365;48.858;8.530;2024-03-08T11:02:20;8.50;99.90
46336;DHT22;31365;48.858;8.530;2024-03-08T11:04:50;8.80;99.90
46336;DHT22;31365;48.858;8.530;2024-03-08T11:07:21;8.80;99.90
46336;DHT22;31365;48.858;8.530;2024-03-08T11:09:50;8.70;99.90
46336;DHT22;31365;48.858;8.530;2024-03-08T11:12:19;8.70;99.90
46336;DHT22;31365;48.858;8.530;2024-03-08T11:15:01;8.50;99.90
46336;DHT22;31365;48.858;8.530;2024-03-08T11:17:45;8.40;99.90
46336;DHT22;31365;48.858;8.530;2024-03-08T11:20:17;8.50;99.90
46336;DHT22;31365;48.858;8.530;2024-03-08T11:22:49;8.40;99.90
46336;DHT22;31365;48.858;8.530;2024-03-08T11:25:43;8.40;99.90
46336;DHT22;31365;48.858;8.530;2024-03-08T11:28:15;8.30;99.90
46336;DHT22;31365;48.858;8.530;2024-03-08T11:31:23;8.20;99.90
46336;DHT22;31365;48.858;8.530;2024-03-08T11:33:54;8.20;99.90
46336;DHT22;31365;48.858;8.530;2024-03-08T11:36:25;8.20;99.90
46336;DHT22;31365;48.858;8.530;2024-03-08T11:38:55;8.20;99.90
46336;DHT22;31365;48.858;8.530;2024-03-08T11:41:36;8.30;99.90
46336;DHT22;31365;48.858;8.530;2024-03-08T11:44:06;8.40;99.90
46336;DHT22;31365;48.858;8.530;2024-03-08T11:46:36;8.50;99.90
46336;DHT22;31365;48.858;8.530;2024-03-08T11:49:07;8.60;99.90
46336;DHT22;31365;48.858;8.530;2024-03-08T11:51:36;8.70;99.90
46336;DHT22;31365;48.858;8.530;2024-03-08T11:54:04;8.80;99.90
46336;DHT22;31365;48.858;8.530;2024-03-08T11:56:34;8.70;99.90
46336;DHT22;31365;48.858;8.530;2024-03-08T11:59:03;8.80;99.90
46336;DHT22;31365;48.858;8.530;2024-03-08T12:01:32;9.40;99.90
46336;DHT22;31365;48.858;8.530;2024-03-08T12:04:02;9.70;99.90
46336;DHT22;31365;48.858;8.530;2024-03-08T12:06:37;9.90;99.90
46336;DHT22;31365;48.858;8.530;2024-03-08T12:09:08;10.40;99.90
46336;DHT22;31365;48.858;8.530;2024-03-08T12:11:38;11.10;99.90
46336;DHT22;31365;48.858;8.530;2024-03-08T12:14:06;11.30;99.90
46336;DHT22;31365;48.858;8.530;2024-03-08T12:16:36;11.10;99.90
46336;DHT22;31365;48.858;8.530;2024-03-08T12:19:07;10.60;99.90
46336;DHT22;31365;48.858;8.530;2024-03-08T12:21:36;10.40;99.90
46336;DHT22;31365;48.858;8.530;2024-03-08T12:24:09;10.20;99.90
46336;DHT22;31365;48.858;8.530;2024-03-08T12:26:40;9.80;99.90
46336;DHT22;31365;48.858;8.530;2024-03-08T12:29:30;9.60;99.90
46336;DHT22;31365;48.858;8.530;2024-03-08T12:32:00;9.50;99.90
46336;DHT22;31365;48.858;8.530;2024-03-08T12:34:30;9.40;99.90
46336;DHT22;31365;48.858;8.530;2024-03-08T12:37:00;9.40;99.90
46336;DHT22;31365;48.858;8.530;2024-03-08T12:39:30;9.70;99.90
46336;DHT22;31365;48.858;8.530;2024-03-08T12:42:00;10.10;99.90
46336;DHT22;31365;48.858;8.530;2024-03-08T12:44:28;10.50;99.90
46336;DHT22;31365;48.858;8.530;2024-03-08T12:46:57;11.00;99.90
46336;DHT22;31365;48.858;8.530;2024-03-08T12:49:26;11.60;99.90
46336;DHT22;31365;48.858;8.530;2024-03-08T12:51:56;12.10;99.90
46336;DHT22;31365;48.858;8.530;2024-03-08T12:54:25;13.20;99.90
46336;DHT22;31365;48.858;8.530;2024-03-08T12:56:53;14.40;99.90
46336;DHT22;31365;48.858;8.530;2024-03-08T12:59:22;14.90;99.90
46336;DHT22;31365;48.858;8.530;2024-03-08T13:01:51;15.40;99.90
46336;DHT22;31365;48.858;8.530;2024-03-08T13:04:21;16.20;99.90
46336;DHT22;31365;48.858;8.530;2024-03-08T13:06:50;16.60;99.90
46336;DHT22;31365;48.858;8.530;2024-03-08T13:09:22;17.00;99.90
46336;DHT22;31365;48.858;8.530;2024-03-08T13:11:54;17.40;99.90
46336;DHT22;31365;48.858;8.530;2024-03-08T13:14:25;17.70;99.90
46336;DHT22;31365;48.858;8.530;2024-03-08T13:16:54;18.30;99.90
46336;DHT22;31365;48.858;8.530;2024-03-08T13:19:23;19.40;99.90
46336;DHT22;31365;48.858;8.530;2024-03-08T13:21:56;19.60;98.60
46336;DHT22;31365;48.858;8.530;2024-03-08T13:24:25;20.20;97.30
46336;DHT22;31365;48.858;8.530;2024-03-08T13:26:55;20.10;97.30
46336;DHT22;31365;48.858;8.530;2024-03-08T13:29:23;20.40;95.60
46336;DHT22;31365;48.858;8.530;2024-03-08T13:31:52;20.60;95.20
46336;DHT22;31365;48.858;8.530;2024-03-08T13:34:27;21.00;94.80
46336;DHT22;31365;48.858;8.530;2024-03-08T13:36:56;21.70;93.10
46336;DHT22;31365;48.858;8.530;2024-03-08T13:39:29;21.80;92.30
46336;DHT22;31365;48.858;8.530;2024-03-08T13:42:03;21.70;91.90
46336;DHT22;31365;48.858;8.530;2024-03-08T13:44:36;21.80;91.70
46336;DHT22;31365;48.858;8.530;2024-03-08T13:47:05;22.40;90.40
46336;DHT22;31365;48.858;8.530;2024-03-08T13:49:34;22.10;90.80
46336;DHT22;31365;48.858;8.530;2024-03-08T13:52:04;22.10;90.10
46336;DHT22;31365;48.858;8.530;2024-03-08T13:54:36;22.60;90.00
46336;DHT22;31365;48.858;8.530;2024-03-08T13:57:06;23.20;88.20
46336;DHT22;31365;48.858;8.530;2024-03-08T13:59:35;23.10;86.80
46336;DHT22;31365;48.858;8.530;2024-03-08T14:02:05;23.00;86.50
46336;DHT22;31365;48.858;8.530;2024-03-08T14:04:34;23.50;85.80
46336;DHT22;31365;48.858;8.530;2024-03-08T14:07:02;23.70;84.20
46336;DHT22;31365;48.858;8.530;2024-03-08T14:09:31;24.10;82.50
46336;DHT22;31365;48.858;8.530;2024-03-08T14:12:06;24.00;82.30
46336;DHT22;31365;48.858;8.530;2024-03-08T14:14:35;24.20;81.70
46336;DHT22;31365;48.858;8.530;2024-03-08T14:17:04;24.50;80.80
46336;DHT22;31365;48.858;8.530;2024-03-08T14:19:34;25.20;79.60
46336;DHT22;31365;48.858;8.530;2024-03-08T14:22:02;25.10;78.10
46336;DHT22;31365;48.858;8.530;2024-03-08T14:24:32;25.10;78.70
46336;DHT22;31365;48.858;8.530;2024-03-08T14:27:03;25.50;77.40
46336;DHT22;31365;48.858;8.530;2024-03-08T14:29:36;25.50;75.90
46336;DHT22;31365;48.858;8.530;2024-03-08T14:32:06;24.90;76.60
46336;DHT22;31365;48.858;8.530;2024-03-08T14:34:35;23.30;77.30
46336;DHT22;31365;48.858;8.530;2024-03-08T14:37:03;21.60;82.20
46336;DHT22;31365;48.858;8.530;2024-03-08T14:39:35;19.60;86.00
46336;DHT22;31365;48.858;8.530;2024-03-08T14:42:05;17.80;90.10
46336;DHT22;31365;48.858;8.530;2024-03-08T14:44:38;16.70;91.90
46336;DHT22;31365;48.858;8.530;2024-03-08T14:47:06;15.90;93.30
46336;DHT22;31365;48.858;8.530;2024-03-08T14:49:35;15.20;94.00
46336;DHT22;31365;48.858;8.530;2024-03-08T14:52:06;14.70;94.90
46336;DHT22;31365;48.858;8.530;2024-03-08T14:54:54;14.00;96.00
46336;DHT22;31365;48.858;8.530;2024-03-08T14:57:25;13.40;97.00
46336;DHT22;31365;48.858;8.530;2024-03-08T14:59:53;13.00;97.70
46336;DHT22;31365;48.858;8.530;2024-03-08T15:02:22;12.70;98.30
46336;DHT22;31365;48.858;8.530;2024-03-08T15:04:51;12.40;98.60
46336;DHT22;31365;48.858;8.530;2024-03-08T15:07:25;12.20;99.70
46336;DHT22;31365;48.858;8.530;2024-03-08T15:09:53;12.00;99.90
46336;DHT22;31365;48.858;8.530;2024-03-08T15:12:25;11.80;99.90
46336;DHT22;31365;48.858;8.530;2024-03-08T15:14:56;11.70;99.90
46336;DHT22;31365;48.858;8.530;2024-03-08T15:17:24;11.70;99.90
46336;DHT22;31365;48.858;8.530;2024-03-08T15:19:53;11.60;99.90
46336;DHT22;31365;48.858;8.530;2024-03-08T15:22:22;11.60;99.90
46336;DHT22;31365;48.858;8.530;2024-03-08T15:24:50;11.40;99.90
46336;DHT22;31365;48.858;8.530;2024-03-08T15:27:19;11.30;99.90
46336;DHT22;31365;48.858;8.530;2024-03-08T15:29:49;11.20;99.90
46336;DHT22;31365;48.858;8.530;2024-03-08T15:32:20;11.10;99.90
46336;DHT22;31365;48.858;8.530;2024-03-08T15:34:50;11.00;99.90
46336;DHT22;31365;48.858;8.530;2024-03-08T15:37:21;10.80;99.90
46336;DHT22;31365;48.858;8.530;2024-03-08T15:39:51;10.70;99.90
46336;DHT22;31365;48.858;8.530;2024-03-08T15:42:20;10.50;99.90
46336;DHT22;31365;48.858;8.530;2024-03-08T15:44:51;10.50;99.90
46336;DHT22;31365;48.858;8.530;2024-03-08T15:47:21;10.40;99.90
46336;DHT22;31365;48.858;8.530;2024-03-08T15:49:56;10.40;99.90
46336;DHT22;31365;48.858;8.530;2024-03-08T15:52:24;10.30;99.90
46336;DHT22;31365;48.858;8.530;2024-03-08T15:54:53;10.30;99.90
46336;DHT22;31365;48.858;8.530;2024-03-08T15:57:22;10.20;99.90
46336;DHT22;31365;48.858;8.530;2024-03-08T15:59:52;10.10;99.90
46336;DHT22;31365;48.858;8.530;2024-03-08T16:02:26;10.10;99.90